createdAt,value
2024-02-16T00:00:10.369Z,95169.00
2024-02-16T00:01:10.354Z,95169.00
2024-02-16T00:02:10.298Z,95167.00
2024-02-16T00:03:10.388Z,95167.00
2024-02-16T00:04:11.141Z,95164.00
2024-02-16T00:05:10.378Z,95161.00
2024-02-16T00:06:10.448Z,95158.00
2024-02-16T00:07:10.395Z,95154.00
2024-02-16T00:08:10.346Z,95153.00
2024-02-16T00:09:10.364Z,95154.00
2024-02-16T00:10:10.372Z,95155.00
2024-02-16T00:11:10.346Z,95155.00
2024-02-16T00:12:10.388Z,95153.00
2024-02-16T00:13:10.333Z,95151.00
2024-02-16T00:14:10.344Z,95149.00
2024-02-16T00:15:10.367Z,95150.00
2024-02-16T00:16:10.328Z,95148.00
2024-02-16T00:17:10.322Z,95149.00
2024-02-16T00:18:10.432Z,95148.00
2024-02-16T00:19:10.421Z,95148.00
2024-02-16T00:20:10.372Z,95150.00
2024-02-16T00:21:10.372Z,95151.00
2024-02-16T00:22:10.331Z,95150.00
2024-02-16T00:23:10.357Z,95150.00
2024-02-16T00:24:10.436Z,95147.00
2024-02-16T00:25:10.384Z,95150.00
2024-02-16T00:26:10.420Z,95148.00
2024-02-16T00:27:10.591Z,95147.00
2024-02-16T00:28:10.650Z,95143.00
2024-02-16T00:29:10.623Z,95144.00
2024-02-16T00:30:10.741Z,95145.00
2024-02-16T00:31:10.820Z,95141.00
2024-02-16T00:32:10.862Z,95143.00
2024-02-16T00:33:10.976Z,95141.00
2024-02-16T00:34:11.034Z,95143.00
2024-02-16T00:35:11.069Z,95144.00
2024-02-16T00:36:11.261Z,95146.00
2024-02-16T00:37:11.274Z,95145.00
2024-02-16T00:38:11.220Z,95144.00
2024-02-16T00:39:11.336Z,95143.00
2024-02-16T00:40:11.359Z,95140.00
2024-02-16T00:41:11.453Z,95143.00
2024-02-16T00:42:11.560Z,95144.00
2024-02-16T00:43:11.554Z,95142.00
2024-02-16T00:44:11.630Z,95141.00
2024-02-16T00:45:11.764Z,95141.00
2024-02-16T00:46:11.745Z,95141.00
2024-02-16T00:47:11.825Z,95137.00
2024-02-16T00:48:11.984Z,95138.00
2024-02-16T00:49:12.137Z,95135.00
2024-02-16T00:50:12.026Z,95137.00
2024-02-16T00:51:12.148Z,95133.00
2024-02-16T00:52:12.232Z,95136.00
2024-02-16T00:53:12.271Z,95133.00
2024-02-16T00:54:12.347Z,95130.00
2024-02-16T00:55:12.428Z,95130.00
2024-02-16T00:56:12.511Z,95129.00
2024-02-16T00:57:12.531Z,95127.00
2024-02-16T00:58:12.634Z,95128.00
2024-02-16T00:59:12.728Z,95131.00
2024-02-16T01:00:12.832Z,95132.00
2024-02-16T01:01:12.906Z,95130.00
2024-02-16T01:02:12.857Z,95130.00
2024-02-16T01:03:12.974Z,95130.00
2024-02-16T01:04:13.030Z,95131.00
2024-02-16T01:05:13.118Z,95133.00
2024-02-16T01:06:13.159Z,95134.00
2024-02-16T01:07:13.277Z,95132.00
2024-02-16T01:08:13.286Z,95133.00
2024-02-16T01:09:13.384Z,95131.00
2024-02-16T01:10:13.471Z,95131.00
2024-02-16T01:11:13.493Z,95131.00
2024-02-16T01:12:13.623Z,95130.00
2024-02-16T01:13:13.639Z,95131.00
2024-02-16T01:14:13.742Z,95129.00
2024-02-16T01:15:13.836Z,95127.00
2024-02-16T01:16:13.855Z,95129.00
2024-02-16T01:17:13.899Z,95131.00
2024-02-16T01:18:14.063Z,95133.00
2024-02-16T01:19:14.154Z,95136.00
2024-02-16T01:20:14.186Z,95136.00
2024-02-16T01:21:14.235Z,95140.00
2024-02-16T01:22:14.240Z,95140.00
2024-02-16T01:23:14.305Z,95139.00
2024-02-16T01:24:14.440Z,95139.00
2024-02-16T01:25:14.477Z,95139.00
2024-02-16T01:26:14.523Z,95136.00
2024-02-16T01:27:14.611Z,95137.00
2024-02-16T01:28:14.651Z,95139.00
2024-02-16T01:29:14.738Z,95141.00
2024-02-16T01:30:14.857Z,95143.00
2024-02-16T01:31:14.850Z,95145.00
2024-02-16T01:32:14.903Z,95146.00
2024-02-16T01:33:15.038Z,95146.00
2024-02-16T01:34:15.161Z,95143.00
2024-02-16T01:35:15.250Z,95141.00
2024-02-16T01:36:15.322Z,95139.00
2024-02-16T01:37:15.271Z,95136.00
2024-02-16T01:38:15.356Z,95136.00
2024-02-16T01:39:15.454Z,95135.00
2024-02-16T01:40:15.762Z,95134.00
2024-02-16T01:41:15.549Z,95131.00
2024-02-16T01:42:15.673Z,95132.00
2024-02-16T01:43:15.690Z,95135.00
2024-02-16T01:44:15.751Z,95135.00
2024-02-16T01:45:15.850Z,95137.00
2024-02-16T01:46:16.673Z,95136.00
2024-02-16T01:47:15.955Z,95135.00
2024-02-16T01:48:16.198Z,95133.00
2024-02-16T01:49:16.200Z,95133.00
2024-02-16T01:50:16.202Z,95135.00
2024-02-16T01:51:16.297Z,95136.00
2024-02-16T01:52:16.303Z,95137.00
2024-02-16T01:53:16.369Z,95138.00
2024-02-16T01:54:16.484Z,95136.00
2024-02-16T01:55:16.489Z,95135.00
2024-02-16T01:56:16.567Z,95133.00
2024-02-16T01:57:16.667Z,95132.00
2024-02-16T01:58:16.703Z,95132.00
2024-02-16T01:59:16.765Z,95130.00
2024-02-16T02:00:16.924Z,95132.00
2024-02-16T02:01:16.929Z,95135.00
2024-02-16T02:02:16.995Z,95134.00
2024-02-16T02:03:17.201Z,95133.00
2024-02-16T02:04:17.282Z,95132.00
2024-02-16T02:05:17.456Z,95129.00
2024-02-16T02:06:17.392Z,95127.00
2024-02-16T02:07:17.552Z,95126.00
2024-02-16T02:08:17.388Z,95124.00
2024-02-16T02:09:17.587Z,95123.00
2024-02-16T02:10:17.511Z,95123.00
2024-02-16T02:11:17.653Z,95124.00
2024-02-16T02:12:17.688Z,95121.00
2024-02-16T02:13:17.699Z,95120.00
2024-02-16T02:14:17.791Z,95117.00
2024-02-16T02:15:17.878Z,95113.00
2024-02-16T02:16:17.998Z,95113.00
2024-02-16T02:17:18.046Z,95112.00
2024-02-16T02:18:18.201Z,95112.00
2024-02-16T02:19:18.340Z,95113.00
2024-02-16T02:20:18.228Z,95114.00
2024-02-16T02:21:18.325Z,95112.00
2024-02-16T02:22:18.370Z,95111.00
2024-02-16T02:23:18.425Z,95109.00
2024-02-16T02:24:18.491Z,95109.00
2024-02-16T02:25:18.534Z,95110.00
2024-02-16T02:26:18.622Z,95108.00
2024-02-16T02:27:18.765Z,95107.00
2024-02-16T02:28:18.783Z,95108.00
2024-02-16T02:29:18.843Z,95109.00
2024-02-16T02:30:18.992Z,95109.00
2024-02-16T02:31:18.962Z,95109.00
2024-02-16T02:32:19.035Z,95109.00
2024-02-16T02:33:19.336Z,95107.00
2024-02-16T02:34:19.194Z,95106.00
2024-02-16T02:35:19.259Z,95105.00
2024-02-16T02:36:19.332Z,95105.00
2024-02-16T02:37:19.369Z,95105.00
2024-02-16T02:38:19.449Z,95108.00
2024-02-16T02:39:19.602Z,95106.00
2024-02-16T02:40:19.590Z,95110.00
2024-02-16T02:41:19.630Z,95111.00
2024-02-16T02:42:19.752Z,95111.00
2024-02-16T02:43:19.782Z,95107.00
2024-02-16T02:44:19.867Z,95105.00
2024-02-16T02:45:19.971Z,95103.00
2024-02-16T02:46:20.003Z,95101.00
2024-02-16T02:47:20.058Z,95102.00
2024-02-16T02:48:20.258Z,95100.00
2024-02-16T02:49:20.277Z,95101.00
2024-02-16T02:50:20.349Z,95102.00
2024-02-16T02:51:20.489Z,95103.00
2024-02-16T02:52:20.423Z,95102.00
2024-02-16T02:53:20.531Z,95103.00
2024-02-16T02:54:20.570Z,95102.00
2024-02-16T02:55:20.716Z,95100.00
2024-02-16T02:56:20.684Z,95099.00
2024-02-16T02:57:20.801Z,95101.00
2024-02-16T02:58:20.823Z,95102.00
2024-02-16T02:59:20.905Z,95103.00
2024-02-16T03:00:21.054Z,95104.00
2024-02-16T03:01:21.084Z,95100.00
2024-02-16T03:02:21.075Z,95101.00
2024-02-16T03:03:21.209Z,95098.00
2024-02-16T03:04:21.204Z,95098.00
2024-02-16T03:05:21.340Z,95101.00
2024-02-16T03:06:21.456Z,95100.00
2024-02-16T03:07:21.451Z,95100.00
2024-02-16T03:08:21.437Z,95102.00
2024-02-16T03:09:21.530Z,95101.00
2024-02-16T03:10:21.582Z,95101.00
2024-02-16T03:11:21.659Z,95103.00
2024-02-16T03:12:21.696Z,95103.00
2024-02-16T03:13:21.763Z,95106.00
2024-02-16T03:14:21.806Z,95104.00
2024-02-16T03:15:21.913Z,95104.00
2024-02-16T03:16:21.888Z,95106.00
2024-02-16T03:17:21.956Z,95106.00
2024-02-16T03:18:22.212Z,95107.00
2024-02-16T03:19:22.153Z,95104.00
2024-02-16T03:20:22.161Z,95104.00
2024-02-16T03:21:22.332Z,95106.00
2024-02-16T03:22:22.296Z,95107.00
2024-02-16T03:23:22.319Z,95106.00
2024-02-16T03:24:22.402Z,95107.00
2024-02-16T03:25:22.405Z,95105.00
2024-02-16T03:26:22.469Z,95106.00
2024-02-16T03:27:22.562Z,95105.00
2024-02-16T03:28:22.558Z,95106.00
2024-02-16T03:29:22.605Z,95107.00
2024-02-16T03:30:22.680Z,95106.00
2024-02-16T03:31:22.713Z,95107.00
2024-02-16T03:32:22.759Z,95107.00
2024-02-16T03:33:23.009Z,95109.00
2024-02-16T03:34:23.144Z,95108.00
2024-02-16T03:35:22.952Z,95112.00
2024-02-16T03:36:23.036Z,95109.00
2024-02-16T03:37:23.075Z,95109.00
2024-02-16T03:38:23.125Z,95106.00
2024-02-16T03:39:23.240Z,95108.00
2024-02-16T03:40:23.275Z,95108.00
2024-02-16T03:41:23.333Z,95108.00
2024-02-16T03:42:23.467Z,95110.00
2024-02-16T03:43:23.452Z,95111.00
2024-02-16T03:44:23.517Z,95111.00
2024-02-16T03:45:23.679Z,95114.00
2024-02-16T03:46:23.665Z,95113.00
2024-02-16T03:47:23.755Z,95112.00
2024-02-16T03:48:23.877Z,95112.00
2024-02-16T03:49:24.036Z,95112.00
2024-02-16T03:50:24.096Z,95113.00
2024-02-16T03:51:24.037Z,95114.00
2024-02-16T03:52:24.023Z,95114.00
2024-02-16T03:53:24.101Z,95114.00
2024-02-16T03:54:24.256Z,95113.00
2024-02-16T03:55:24.261Z,95113.00
2024-02-16T03:56:24.329Z,95111.00
2024-02-16T03:57:24.457Z,95114.00
2024-02-16T03:58:24.444Z,95112.00
2024-02-16T03:59:24.482Z,95112.00
2024-02-16T04:00:24.686Z,95113.00
2024-02-16T04:01:24.707Z,95112.00
2024-02-16T04:02:24.729Z,95113.00
2024-02-16T04:03:24.777Z,95115.00
2024-02-16T04:04:24.919Z,95114.00
2024-02-16T04:05:24.954Z,95118.00
2024-02-16T04:06:25.049Z,95117.00
2024-02-16T04:07:25.132Z,95117.00
2024-02-16T04:08:25.176Z,95116.00
2024-02-16T04:09:25.235Z,95119.00
2024-02-16T04:10:25.294Z,95116.00
2024-02-16T04:11:25.389Z,95116.00
2024-02-16T04:12:25.459Z,95116.00
2024-02-16T04:13:25.455Z,95120.00
2024-02-16T04:14:25.508Z,95119.00
2024-02-16T04:15:25.621Z,95120.00
2024-02-16T04:16:25.683Z,95122.00
2024-02-16T04:17:25.837Z,95124.00
2024-02-16T04:18:33.110Z,95125.00
2024-02-16T04:19:33.160Z,95124.00
2024-02-16T04:20:32.983Z,95124.00
2024-02-16T04:21:33.099Z,95126.00
2024-02-16T04:22:32.999Z,95127.00
2024-02-16T04:23:32.962Z,95129.00
2024-02-16T04:24:33.070Z,95127.00
2024-02-16T04:25:32.987Z,95128.00
2024-02-16T04:26:33.021Z,95131.00
2024-02-16T04:27:33.038Z,95131.00
2024-02-16T04:28:32.985Z,95131.00
2024-02-16T04:29:33.000Z,95129.00
2024-02-16T04:30:33.136Z,95130.00
2024-02-16T04:31:40.348Z,95129.00
2024-02-16T04:32:40.414Z,95129.00
2024-02-16T04:33:40.466Z,95131.00
2024-02-16T04:34:40.396Z,95131.00
2024-02-16T04:35:40.353Z,95132.00
2024-02-16T04:36:40.308Z,95131.00
2024-02-16T04:37:40.317Z,95131.00
2024-02-16T04:38:40.320Z,95129.00
2024-02-16T04:39:40.383Z,95132.00
2024-02-16T04:40:40.311Z,95131.00
2024-02-16T04:41:40.337Z,95130.00
2024-02-16T04:42:40.314Z,95129.00
2024-02-16T04:43:40.299Z,95130.00
2024-02-16T04:44:40.319Z,95128.00
2024-02-16T04:45:40.378Z,95129.00
2024-02-16T04:46:40.319Z,95128.00
2024-02-16T04:47:40.367Z,95127.00
2024-02-16T04:48:40.446Z,95129.00
2024-02-16T04:49:40.391Z,95126.00
2024-02-16T04:50:40.345Z,95125.00
2024-02-16T04:51:40.359Z,95127.00
2024-02-16T04:52:40.359Z,95127.00
2024-02-16T04:53:40.328Z,95128.00
2024-02-16T04:54:40.318Z,95129.00
2024-02-16T04:55:40.386Z,95127.00
2024-02-16T04:56:40.330Z,95127.00
2024-02-16T04:57:40.392Z,95127.00
2024-02-16T04:58:40.334Z,95126.00
2024-02-16T04:59:40.353Z,95125.00
2024-02-16T05:00:40.473Z,95126.00
2024-02-16T05:01:40.516Z,95125.00
2024-02-16T05:02:40.456Z,95128.00
2024-02-16T05:03:40.538Z,95126.00
2024-02-16T05:04:40.554Z,95126.00
2024-02-16T05:05:40.620Z,95126.00
2024-02-16T05:06:40.750Z,95124.00
2024-02-16T05:07:40.698Z,95124.00
2024-02-16T05:08:40.775Z,95124.00
2024-02-16T05:09:40.887Z,95124.00
2024-02-16T05:10:40.895Z,95125.00
2024-02-16T05:11:40.896Z,95125.00
2024-02-16T05:12:40.978Z,95122.00
2024-02-16T05:13:40.947Z,95123.00
2024-02-16T05:14:41.029Z,95122.00
2024-02-16T05:15:41.126Z,95122.00
2024-02-16T05:16:41.156Z,95123.00
2024-02-16T05:17:41.211Z,95123.00
2024-02-16T05:18:41.323Z,95123.00
2024-02-16T05:19:41.274Z,95123.00
2024-02-16T05:20:41.325Z,95123.00
2024-02-16T05:21:41.373Z,95125.00
2024-02-16T05:22:41.430Z,95127.00
2024-02-16T05:23:41.503Z,95128.00
2024-02-16T05:24:41.525Z,95128.00
2024-02-16T05:25:41.574Z,95130.00
2024-02-16T05:26:41.658Z,95129.00
2024-02-16T05:27:41.678Z,95129.00
2024-02-16T05:28:41.780Z,95131.00
2024-02-16T05:29:41.838Z,95131.00
2024-02-16T05:30:41.959Z,95129.00
2024-02-16T05:31:41.923Z,95130.00
2024-02-16T05:32:41.987Z,95128.00
2024-02-16T05:33:42.183Z,95128.00
2024-02-16T05:34:42.171Z,95130.00
2024-02-16T05:35:42.140Z,95131.00
2024-02-16T05:36:42.142Z,95132.00
2024-02-16T05:37:42.206Z,95130.00
2024-02-16T05:38:42.268Z,95132.00
2024-02-16T05:39:42.342Z,95131.00
2024-02-16T05:40:42.423Z,95130.00
2024-02-16T05:41:42.465Z,95132.00
2024-02-16T05:42:42.565Z,95132.00
2024-02-16T05:43:42.596Z,95133.00
2024-02-16T05:44:42.717Z,95136.00
2024-02-16T05:45:42.897Z,95136.00
2024-02-16T05:46:43.446Z,95137.00
2024-02-16T05:47:42.823Z,95138.00
2024-02-16T05:48:42.861Z,95143.00
2024-02-16T05:49:42.990Z,95143.00
2024-02-16T05:50:42.975Z,95145.00
2024-02-16T05:51:43.067Z,95143.00
2024-02-16T05:52:43.031Z,95140.00
2024-02-16T05:53:43.027Z,95141.00
2024-02-16T05:54:43.201Z,95142.00
2024-02-16T05:55:43.080Z,95144.00
2024-02-16T05:56:43.109Z,95145.00
2024-02-16T05:57:43.219Z,95146.00
2024-02-16T05:58:43.239Z,95146.00
2024-02-16T05:59:43.389Z,95148.00
2024-02-16T06:00:43.300Z,95146.00
2024-02-16T06:01:43.463Z,95147.00
2024-02-16T06:02:43.415Z,95146.00
2024-02-16T06:03:43.462Z,95150.00
2024-02-16T06:04:43.624Z,95149.00
2024-02-16T06:05:43.621Z,95150.00
2024-02-16T06:06:43.694Z,95152.00
2024-02-16T06:07:43.655Z,95152.00
2024-02-16T06:08:43.713Z,95154.00
2024-02-16T06:09:43.811Z,95155.00
2024-02-16T06:10:43.913Z,95155.00
2024-02-16T06:11:43.879Z,95157.00
2024-02-16T06:12:43.974Z,95157.00
2024-02-16T06:13:44.025Z,95159.00
2024-02-16T06:14:44.087Z,95161.00
2024-02-16T06:15:44.566Z,95160.00
2024-02-16T06:16:44.199Z,95160.00
2024-02-16T06:17:44.403Z,95162.00
2024-02-16T06:18:44.520Z,95164.00
2024-02-16T06:19:44.587Z,95164.00
2024-02-16T06:20:44.546Z,95165.00
2024-02-16T06:21:44.582Z,95167.00
2024-02-16T06:22:44.648Z,95165.00
2024-02-16T06:23:44.707Z,95166.00
2024-02-16T06:24:44.845Z,95167.00
2024-02-16T06:25:44.874Z,95167.00
2024-02-16T06:26:44.956Z,95169.00
2024-02-16T06:27:45.278Z,95168.00
2024-02-16T06:28:45.028Z,95165.00
2024-02-16T06:29:45.111Z,95169.00
2024-02-16T06:30:45.271Z,95171.00
2024-02-16T06:31:45.250Z,95170.00
2024-02-16T06:32:45.363Z,95172.00
2024-02-16T06:33:45.549Z,95173.00
2024-02-16T06:34:45.481Z,95172.00
2024-02-16T06:35:45.530Z,95175.00
2024-02-16T06:36:45.632Z,95174.00
2024-02-16T06:37:45.659Z,95175.00
2024-02-16T06:38:45.691Z,95177.00
2024-02-16T06:39:45.836Z,95178.00
2024-02-16T06:40:45.851Z,95181.00
2024-02-16T06:41:45.879Z,95179.00
2024-02-16T06:42:45.956Z,95182.00
2024-02-16T06:43:46.026Z,95183.00
2024-02-16T06:44:46.058Z,95183.00
2024-02-16T06:45:46.195Z,95184.00
2024-02-16T06:46:46.209Z,95183.00
2024-02-16T06:47:46.329Z,95184.00
2024-02-16T06:48:46.352Z,95186.00
2024-02-16T06:49:46.403Z,95186.00
2024-02-16T06:50:46.479Z,95187.00
2024-02-16T06:51:46.804Z,95184.00
2024-02-16T06:52:46.546Z,95186.00
2024-02-16T06:53:46.614Z,95187.00
2024-02-16T06:54:46.712Z,95187.00
2024-02-16T06:55:46.713Z,95187.00
2024-02-16T06:56:46.743Z,95187.00
2024-02-16T06:57:46.847Z,95187.00
2024-02-16T06:58:46.865Z,95189.00
2024-02-16T06:59:46.946Z,95192.00
2024-02-16T07:00:47.089Z,95194.00
2024-02-16T07:01:47.067Z,95193.00
2024-02-16T07:02:47.077Z,95196.00
2024-02-16T07:03:48.151Z,95198.00
2024-02-16T07:04:47.216Z,95200.00
2024-02-16T07:05:47.318Z,95201.00
2024-02-16T07:06:47.402Z,95203.00
2024-02-16T07:07:47.376Z,95204.00
2024-02-16T07:08:47.436Z,95200.00
2024-02-16T07:09:47.546Z,95199.00
2024-02-16T07:10:47.571Z,95202.00
2024-02-16T07:11:49.656Z,95202.00
2024-02-16T07:12:47.667Z,95204.00
2024-02-16T07:13:47.641Z,95205.00
2024-02-16T07:14:47.606Z,95206.00
2024-02-16T07:15:47.661Z,95206.00
2024-02-16T07:16:47.625Z,95207.00
2024-02-16T07:17:47.632Z,95208.00
2024-02-16T07:18:47.792Z,95207.00
2024-02-16T07:19:47.639Z,95209.00
2024-02-16T07:20:50.543Z,95209.00
2024-02-16T07:21:47.593Z,95207.00
2024-02-16T07:22:47.620Z,95206.00
2024-02-16T07:23:47.580Z,95209.00
2024-02-16T07:24:47.597Z,95207.00
2024-02-16T07:25:47.603Z,95209.00
2024-02-16T07:26:47.575Z,95209.00
2024-02-16T07:27:47.614Z,95210.00
2024-02-16T07:28:47.589Z,95210.00
2024-02-16T07:29:47.610Z,95209.00
2024-02-16T07:30:47.660Z,95213.00
2024-02-16T07:31:47.619Z,95215.00
2024-02-16T07:32:47.634Z,95213.00
2024-02-16T07:33:47.678Z,95215.00
2024-02-16T07:34:47.673Z,95214.00
2024-02-16T07:35:47.649Z,95216.00
2024-02-16T07:36:47.632Z,95222.00
2024-02-16T07:37:47.607Z,95219.00
2024-02-16T07:38:47.651Z,95218.00
2024-02-16T07:39:47.679Z,95220.00
2024-02-16T07:40:47.635Z,95219.00
2024-02-16T07:41:47.629Z,95219.00
2024-02-16T07:42:47.650Z,95219.00
2024-02-16T07:43:47.623Z,95220.00
2024-02-16T07:44:47.656Z,95218.00
2024-02-16T07:45:48.240Z,95218.00
2024-02-16T07:46:47.684Z,95219.00
2024-02-16T07:47:47.707Z,95219.00
2024-02-16T07:48:47.829Z,95221.00
2024-02-16T07:49:47.683Z,95222.00
2024-02-16T07:50:47.636Z,95220.00
2024-02-16T07:51:47.702Z,95223.00
2024-02-16T07:52:47.635Z,95223.00
2024-02-16T07:53:47.735Z,95224.00
2024-02-16T07:54:47.629Z,95225.00
2024-02-16T07:55:47.701Z,95224.00
2024-02-16T07:56:47.618Z,95226.00
2024-02-16T07:57:47.804Z,95224.00
2024-02-16T07:58:47.721Z,95225.00
2024-02-16T07:59:47.652Z,95222.00
2024-02-16T08:00:47.718Z,95224.00
2024-02-16T08:01:47.752Z,95224.00
2024-02-16T08:02:47.694Z,95224.00
2024-02-16T08:03:47.771Z,95222.00
2024-02-16T08:04:47.797Z,95223.00
2024-02-16T08:05:47.920Z,95223.00
2024-02-16T08:06:47.959Z,95223.00
2024-02-16T08:07:47.882Z,95223.00
2024-02-16T08:08:47.905Z,95226.00
2024-02-16T08:09:49.125Z,95226.00
2024-02-16T08:10:48.002Z,95223.00
2024-02-16T08:11:48.021Z,95227.00
2024-02-16T08:12:47.970Z,95226.00
2024-02-16T08:13:47.966Z,95228.00
2024-02-16T08:14:48.025Z,95226.00
2024-02-16T08:15:48.074Z,95226.00
2024-02-16T08:16:48.069Z,95227.00
2024-02-16T08:17:48.209Z,95225.00
2024-02-16T08:18:48.327Z,95225.00
2024-02-16T08:19:48.267Z,95225.00
2024-02-16T08:20:48.220Z,95223.00
2024-02-16T08:21:48.229Z,95223.00
2024-02-16T08:22:48.220Z,95223.00
2024-02-16T08:23:48.282Z,95224.00
2024-02-16T08:24:48.345Z,95225.00
2024-02-16T08:25:48.348Z,95223.00
2024-02-16T08:26:48.351Z,95223.00
2024-02-16T08:27:48.439Z,95223.00
2024-02-16T08:28:48.425Z,95223.00
2024-02-16T08:29:48.483Z,95222.00
2024-02-16T08:30:48.511Z,95221.00
2024-02-16T08:31:48.524Z,95221.00
2024-02-16T08:32:48.601Z,95221.00
2024-02-16T08:33:49.089Z,95221.00
2024-02-16T08:34:48.675Z,95223.00
2024-02-16T08:35:48.679Z,95223.00
2024-02-16T08:36:48.601Z,95225.00
2024-02-16T08:37:48.670Z,95224.00
2024-02-16T08:38:48.693Z,95226.00
2024-02-16T08:39:48.719Z,95225.00
2024-02-16T08:40:48.722Z,95225.00
2024-02-16T08:41:48.740Z,95225.00
2024-02-16T08:42:49.011Z,95224.00
2024-02-16T08:43:48.787Z,95225.00
2024-02-16T08:44:48.831Z,95224.00
2024-02-16T08:45:48.964Z,95224.00
2024-02-16T08:46:48.876Z,95225.00
2024-02-16T08:47:51.624Z,95223.00
2024-02-16T08:48:49.166Z,95225.00
2024-02-16T08:49:48.982Z,95223.00
2024-02-16T08:50:48.938Z,95223.00
2024-02-16T08:51:48.943Z,95223.00
2024-02-16T08:52:48.976Z,95221.00
2024-02-16T08:53:48.891Z,95223.00
2024-02-16T08:54:48.989Z,95221.00
2024-02-16T08:55:48.971Z,95222.00
2024-02-16T08:56:48.912Z,95218.00
2024-02-16T08:57:48.946Z,95218.00
2024-02-16T08:58:48.973Z,95217.00
2024-02-16T08:59:48.926Z,95217.00
2024-02-16T09:00:49.072Z,95216.00
2024-02-16T09:01:48.925Z,95217.00
2024-02-16T09:02:48.912Z,95215.00
2024-02-16T09:03:49.071Z,95214.00
2024-02-16T09:04:49.248Z,95211.00
2024-02-16T09:05:49.016Z,95212.00
2024-02-16T09:06:48.977Z,95208.00
2024-02-16T09:07:48.936Z,95210.00
2024-02-16T09:08:49.007Z,95209.00
2024-02-16T09:09:48.941Z,95208.00
2024-02-16T09:10:48.967Z,95208.00
2024-02-16T09:11:48.921Z,95208.00
2024-02-16T09:12:48.956Z,95208.00
2024-02-16T09:13:48.929Z,95209.00
2024-02-16T09:14:48.930Z,95208.00
2024-02-16T09:15:49.034Z,95210.00
2024-02-16T09:16:48.944Z,95209.00
2024-02-16T09:17:48.933Z,95208.00
2024-02-16T09:18:48.972Z,95208.00
2024-02-16T09:19:48.966Z,95210.00
2024-02-16T09:20:48.949Z,95208.00
2024-02-16T09:21:48.958Z,95209.00
2024-02-16T09:22:48.910Z,95208.00
2024-02-16T09:23:48.919Z,95208.00
2024-02-16T09:24:48.956Z,95206.00
2024-02-16T09:25:48.982Z,95207.00
2024-02-16T09:26:48.970Z,95204.00
2024-02-16T09:27:49.049Z,95205.00
2024-02-16T09:28:48.950Z,95206.00
2024-02-16T09:29:48.965Z,95206.00
2024-02-16T09:30:48.935Z,95205.00
2024-02-16T09:31:48.943Z,95205.00
2024-02-16T09:32:48.969Z,95204.00
2024-02-16T09:33:49.027Z,95206.00
2024-02-16T09:34:49.072Z,95204.00
2024-02-16T09:35:48.931Z,95205.00
2024-02-16T09:36:48.977Z,95204.00
2024-02-16T09:37:48.940Z,95202.00
2024-02-16T09:38:49.031Z,95200.00
2024-02-16T09:39:48.979Z,95199.00
2024-02-16T09:40:48.959Z,95198.00
2024-02-16T09:41:48.978Z,95197.00
2024-02-16T09:42:48.979Z,95194.00
2024-02-16T09:43:48.973Z,95193.00
2024-02-16T09:44:48.977Z,95191.00
2024-02-16T09:45:48.965Z,95190.00
2024-02-16T09:46:50.592Z,95190.00
2024-02-16T09:47:57.016Z,95188.00
2024-02-16T09:48:50.290Z,95187.00
2024-02-16T09:49:49.110Z,95187.00
2024-02-16T09:50:49.062Z,95184.00
2024-02-16T09:51:49.036Z,95184.00
2024-02-16T09:52:48.970Z,95184.00
2024-02-16T09:53:48.978Z,95182.00
2024-02-16T09:54:49.052Z,95182.00
2024-02-16T09:55:48.956Z,95180.00
2024-02-16T09:56:49.009Z,95180.00
2024-02-16T09:57:48.971Z,95180.00
2024-02-16T09:58:48.962Z,95179.00
2024-02-16T09:59:48.958Z,95177.00
2024-02-16T10:00:49.062Z,95176.00
2024-02-16T10:01:49.041Z,95173.00
2024-02-16T10:02:49.005Z,95172.00
2024-02-16T10:03:49.004Z,95170.00
2024-02-16T10:04:49.125Z,95169.00
2024-02-16T10:05:49.147Z,95166.00
2024-02-16T10:06:49.152Z,95167.00
2024-02-16T10:07:49.071Z,95169.00
2024-02-16T10:08:48.988Z,95166.00
2024-02-16T10:09:49.024Z,95166.00
2024-02-16T10:10:48.975Z,95164.00
2024-02-16T10:11:49.035Z,95163.00
2024-02-16T10:12:49.106Z,95162.00
2024-02-16T10:13:48.985Z,95162.00
2024-02-16T10:14:48.980Z,95163.00
2024-02-16T10:15:49.007Z,95162.00
2024-02-16T10:16:49.015Z,95162.00
2024-02-16T10:17:49.073Z,95162.00
2024-02-16T10:18:49.112Z,95160.00
2024-02-16T10:19:49.167Z,95160.00
2024-02-16T10:20:49.016Z,95160.00
2024-02-16T10:21:49.036Z,95161.00
2024-02-16T10:22:49.330Z,95158.00
2024-02-16T10:23:49.000Z,95159.00
2024-02-16T10:24:49.068Z,95159.00
2024-02-16T10:25:49.012Z,95158.00
2024-02-16T10:26:49.009Z,95158.00
2024-02-16T10:27:48.996Z,95157.00
2024-02-16T10:28:49.017Z,95155.00
2024-02-16T10:29:49.003Z,95157.00
2024-02-16T10:30:49.030Z,95154.00
2024-02-16T10:31:49.028Z,95151.00
2024-02-16T10:32:49.057Z,95150.00
2024-02-16T10:33:49.201Z,95149.00
2024-02-16T10:34:49.090Z,95149.00
2024-02-16T10:35:48.995Z,95146.00
2024-02-16T10:36:49.030Z,95142.00
2024-02-16T10:37:48.987Z,95141.00
2024-02-16T10:38:48.994Z,95140.00
2024-02-16T10:39:49.113Z,95139.00
2024-02-16T10:40:49.000Z,95136.00
2024-02-16T10:41:49.006Z,95136.00
2024-02-16T10:42:49.006Z,95133.00
2024-02-16T10:43:49.015Z,95134.00
2024-02-16T10:44:49.014Z,95131.00
2024-02-16T10:45:49.045Z,95130.00
2024-02-16T10:46:49.052Z,95128.00
2024-02-16T10:47:49.058Z,95127.00
2024-02-16T10:48:49.311Z,95126.00
2024-02-16T10:49:49.165Z,95126.00
2024-02-16T10:50:49.181Z,95125.00
2024-02-16T10:51:49.147Z,95123.00
2024-02-16T10:52:49.041Z,95121.00
2024-02-16T10:53:49.032Z,95121.00
2024-02-16T10:54:49.081Z,95118.00
2024-02-16T10:55:49.024Z,95118.00
2024-02-16T10:56:49.065Z,95116.00
2024-02-16T10:57:49.106Z,95116.00
2024-02-16T10:58:49.009Z,95113.00
2024-02-16T10:59:49.096Z,95113.00
2024-02-16T11:00:49.131Z,95112.00
2024-02-16T11:01:49.126Z,95109.00
2024-02-16T11:02:49.042Z,95107.00
2024-02-16T11:03:49.127Z,95104.00
2024-02-16T11:04:49.060Z,95103.00
2024-02-16T11:05:49.128Z,95100.00
2024-02-16T11:06:49.250Z,95098.00
2024-02-16T11:07:49.064Z,95096.00
2024-02-16T11:08:49.064Z,95094.00
2024-02-16T11:09:49.195Z,95093.00
2024-02-16T11:10:49.066Z,95092.00
2024-02-16T11:11:49.062Z,95091.00
2024-02-16T11:12:49.089Z,95089.00
2024-02-16T11:13:49.076Z,95089.00
2024-02-16T11:14:49.094Z,95087.00
2024-02-16T11:15:49.146Z,95084.00
2024-02-16T11:16:49.107Z,95080.00
2024-02-16T11:17:49.104Z,95081.00
2024-02-16T11:18:49.198Z,95075.00
2024-02-16T11:19:49.318Z,95075.00
2024-02-16T11:20:49.095Z,95076.00
2024-02-16T11:21:49.127Z,95073.00
2024-02-16T11:22:49.091Z,95073.00
2024-02-16T11:23:49.118Z,95071.00
2024-02-16T11:24:49.242Z,95071.00
2024-02-16T11:25:49.101Z,95071.00
2024-02-16T11:26:49.122Z,95067.00
2024-02-16T11:27:49.185Z,95068.00
2024-02-16T11:28:49.113Z,95064.00
2024-02-16T11:29:49.154Z,95063.00
2024-02-16T11:30:50.700Z,95063.00
2024-02-16T11:31:49.145Z,95059.00
2024-02-16T11:32:49.240Z,95060.00
2024-02-16T11:33:49.406Z,95057.00
2024-02-16T11:34:49.733Z,95053.00
2024-02-16T11:35:49.191Z,95055.00
2024-02-16T11:36:49.249Z,95054.00
2024-02-16T11:37:49.182Z,95052.00
2024-02-16T11:38:49.183Z,95051.00
2024-02-16T11:39:49.310Z,95049.00
2024-02-16T11:40:49.212Z,95048.00
2024-02-16T11:41:49.221Z,95046.00
2024-02-16T11:42:49.208Z,95044.00
2024-02-16T11:43:49.208Z,95042.00
2024-02-16T11:44:49.208Z,95042.00